createdAt,value
2022-11-12T00:01:48.063Z,3.15
2022-11-12T00:04:18.717Z,2.95
2022-11-12T00:06:48.560Z,2.78
2022-11-12T00:09:19.866Z,2.60
2022-11-12T00:11:52.618Z,2.88
2022-11-12T00:14:20.948Z,2.20
2022-11-12T00:16:54.896Z,2.42
2022-11-12T00:19:23.864Z,2.78
2022-11-12T00:21:52.185Z,3.33
2022-11-12T00:24:23.547Z,3.65
2022-11-12T00:26:55.038Z,3.13
2022-11-12T00:29:23.335Z,4.03
2022-11-12T00:31:54.262Z,4.32
2022-11-12T00:34:25.397Z,4.00
2022-11-12T00:36:53.788Z,4.50
2022-11-12T00:39:22.101Z,3.85
2022-11-12T00:41:50.621Z,3.38
2022-11-12T00:44:21.422Z,3.15
2022-11-12T00:46:52.665Z,4.07
2022-11-12T00:49:20.963Z,3.70
2022-11-12T00:51:49.801Z,4.20
2022-11-12T00:54:18.412Z,5.60
2022-11-12T00:56:50.067Z,3.50
2022-11-12T00:59:18.423Z,3.67
2022-11-12T01:01:48.472Z,3.50
2022-11-12T01:04:17.088Z,3.33
2022-11-12T01:06:45.472Z,3.70
2022-11-12T01:09:13.782Z,4.32
2022-11-12T01:11:46.256Z,4.28
2022-11-12T01:14:14.716Z,4.57
2022-11-12T01:16:46.879Z,5.10
2022-11-12T01:19:15.218Z,5.20
2022-11-12T01:21:47.703Z,4.97
2022-11-12T01:24:16.029Z,5.70
2022-11-12T01:26:47.339Z,5.78
2022-11-12T01:29:25.538Z,8.10
2022-11-12T01:31:53.947Z,6.53
2022-11-12T01:34:30.743Z,5.30
2022-11-12T01:37:02.741Z,5.97
2022-11-12T01:39:31.191Z,4.82
2022-11-12T01:42:08.508Z,6.00
2022-11-12T01:44:41.139Z,5.97
2022-11-12T01:47:18.466Z,6.03
2022-11-12T01:49:55.171Z,6.25
2022-11-12T01:52:47.041Z,5.70
2022-11-12T01:55:24.617Z,6.50
2022-11-12T01:58:01.307Z,5.68
2022-11-12T02:00:29.896Z,7.22
2022-11-12T02:03:03.451Z,6.55
2022-11-12T02:05:34.819Z,6.00
2022-11-12T02:08:13.676Z,5.25
2022-11-12T02:10:44.306Z,5.32
2022-11-12T02:13:33.465Z,8.13
2022-11-12T02:16:04.021Z,6.88
2022-11-12T02:18:34.658Z,6.60
2022-11-12T02:21:09.731Z,5.32
2022-11-12T02:23:38.591Z,6.35
2022-11-12T02:26:09.421Z,5.00
2022-11-12T02:28:38.106Z,6.47
2022-11-12T02:31:06.436Z,6.40
2022-11-12T02:33:34.739Z,4.70
2022-11-12T02:36:03.056Z,5.72
2022-11-12T02:38:31.374Z,6.40
2022-11-12T02:41:07.221Z,6.15
2022-11-12T02:43:39.903Z,5.63
2022-11-12T02:46:09.214Z,6.15
2022-11-12T02:48:37.594Z,6.40
2022-11-12T02:51:16.557Z,5.70
2022-11-12T02:53:44.850Z,5.85
2022-11-12T02:56:13.144Z,7.32
2022-11-12T02:58:41.464Z,6.75
2022-11-12T03:01:09.879Z,6.07
2022-11-12T03:03:56.395Z,7.00
2022-11-12T03:06:25.625Z,6.28
2022-11-12T03:08:57.340Z,6.93
2022-11-12T03:11:28.177Z,9.27
2022-11-12T03:13:56.551Z,5.45
2022-11-12T03:16:30.876Z,8.55
2022-11-12T03:19:01.599Z,7.85
2022-11-12T03:21:30.056Z,7.75
2022-11-12T03:23:58.594Z,6.90
2022-11-12T03:26:35.400Z,7.82
2022-11-12T03:29:06.411Z,6.45
2022-11-12T03:31:37.136Z,9.15
2022-11-12T03:34:05.530Z,7.05
2022-11-12T03:36:36.756Z,8.10
2022-11-12T03:39:08.438Z,7.03
2022-11-12T03:41:44.178Z,9.48
2022-11-12T03:44:16.883Z,7.03
2022-11-12T03:46:54.205Z,10.00
2022-11-12T03:49:22.566Z,8.20
2022-11-12T03:51:55.906Z,9.73
2022-11-12T03:54:27.995Z,13.70
2022-11-12T03:56:58.257Z,11.30
2022-11-12T03:59:29.466Z,11.80
2022-11-12T04:02:02.753Z,14.95
2022-11-12T04:04:51.226Z,13.18
2022-11-12T04:07:39.636Z,11.95
2022-11-12T04:10:08.137Z,9.75
2022-11-12T04:12:54.638Z,8.52
2022-11-12T04:15:22.969Z,6.90
2022-11-12T04:18:09.916Z,7.03
2022-11-12T04:21:07.063Z,6.45
2022-11-12T04:23:35.379Z,6.32
2022-11-12T04:26:22.512Z,7.35
2022-11-12T04:29:09.259Z,11.60
2022-11-12T04:31:42.397Z,7.32
2022-11-12T04:34:43.035Z,7.47
2022-11-12T04:37:47.716Z,7.63
2022-11-12T04:40:46.938Z,7.38
2022-11-12T04:43:38.079Z,7.25
2022-11-12T04:46:09.329Z,12.52
2022-11-12T04:48:40.347Z,7.93
2022-11-12T04:51:30.358Z,9.88
2022-11-12T04:53:58.740Z,7.22
2022-11-12T04:56:27.386Z,8.10
2022-11-12T04:58:55.701Z,5.88
2022-11-12T05:01:32.525Z,5.90
2022-11-12T05:04:03.176Z,6.10
2022-11-12T05:06:50.003Z,6.43
2022-11-12T05:09:22.237Z,6.55
2022-11-12T05:11:50.916Z,8.32
2022-11-12T05:14:19.837Z,6.80
2022-11-12T05:16:51.354Z,6.82
2022-11-12T05:19:26.442Z,7.10
2022-11-12T05:22:07.486Z,7.07
2022-11-12T05:24:46.376Z,7.47
2022-11-12T05:27:20.356Z,9.88
2022-11-12T05:29:51.276Z,9.38
2022-11-12T05:32:22.581Z,11.35
2022-11-12T05:34:53.791Z,9.40
2022-11-12T05:37:22.424Z,11.85
2022-11-12T05:39:53.085Z,11.52
2022-11-12T05:42:27.079Z,12.57
2022-11-12T05:44:58.838Z,10.25
2022-11-12T05:47:27.216Z,12.25
2022-11-12T05:49:57.787Z,13.18
2022-11-12T05:52:29.140Z,14.30
2022-11-12T05:54:57.565Z,14.43
2022-11-12T05:57:29.143Z,13.32
2022-11-12T06:00:00.191Z,11.80
2022-11-12T06:02:30.742Z,13.50
2022-11-12T06:04:59.218Z,11.32
2022-11-12T06:07:31.845Z,9.75
2022-11-12T06:10:02.994Z,10.90
2022-11-12T06:12:35.379Z,11.32
2022-11-12T06:15:07.659Z,10.15
2022-11-12T06:17:36.176Z,8.80
2022-11-12T06:20:17.140Z,10.90
2022-11-12T06:22:45.565Z,9.45
2022-11-12T06:25:14.858Z,8.70
2022-11-12T06:27:45.420Z,9.07
2022-11-12T06:30:14.003Z,8.15
2022-11-12T06:32:48.231Z,7.78
2022-11-12T06:35:23.966Z,8.00
2022-11-12T06:37:55.151Z,7.68
2022-11-12T06:40:32.176Z,6.80
2022-11-12T06:43:01.618Z,7.13
2022-11-12T06:45:34.217Z,7.70
2022-11-12T06:48:02.531Z,6.93
2022-11-12T06:50:32.256Z,7.03
2022-11-12T06:53:03.117Z,7.55
2022-11-12T06:55:33.906Z,6.50
2022-11-12T06:58:05.402Z,7.50
2022-11-12T07:00:38.601Z,6.72
2022-11-12T07:03:18.663Z,7.30
2022-11-12T07:05:49.231Z,7.18
2022-11-12T07:08:26.234Z,7.10
2022-11-12T07:11:02.615Z,7.10
2022-11-12T07:13:37.706Z,6.45
2022-11-12T07:16:08.121Z,6.53
2022-11-12T07:18:37.134Z,6.53
2022-11-12T07:21:10.742Z,7.30
2022-11-12T07:23:44.043Z,5.72
2022-11-12T07:26:22.690Z,5.50
2022-11-12T07:28:53.135Z,5.07
2022-11-12T07:31:24.571Z,5.95
2022-11-12T07:33:55.042Z,6.20
2022-11-12T07:36:33.664Z,5.90
2022-11-12T07:39:05.346Z,5.65
2022-11-12T07:41:38.750Z,7.43
2022-11-12T07:44:10.179Z,4.85
2022-11-12T07:46:44.596Z,6.53
2022-11-12T07:49:12.981Z,6.43
2022-11-12T07:51:54.317Z,6.75
2022-11-12T07:54:25.146Z,5.90
2022-11-12T07:57:00.378Z,7.55
2022-11-12T07:59:31.077Z,7.30
2022-11-12T08:02:10.738Z,7.15
2022-11-12T08:04:39.838Z,6.70
2022-11-12T08:07:11.038Z,6.47
2022-11-12T08:09:47.791Z,6.65
2022-11-12T08:12:26.296Z,6.05
2022-11-12T08:15:03.248Z,6.18
2022-11-12T08:17:35.478Z,7.03
2022-11-12T08:20:05.818Z,6.38
2022-11-12T08:22:49.195Z,7.63
2022-11-12T08:25:20.023Z,7.28
2022-11-12T08:27:48.663Z,8.10
2022-11-12T08:30:20.216Z,7.63
2022-11-12T08:32:48.971Z,6.88
2022-11-12T08:35:21.894Z,7.85
2022-11-12T08:37:56.022Z,8.32
2022-11-12T08:40:26.641Z,7.15
2022-11-12T08:43:08.369Z,8.80
2022-11-12T08:45:43.031Z,6.68
2022-11-12T08:48:15.220Z,7.97
2022-11-12T08:50:45.615Z,8.27
2022-11-12T08:53:15.059Z,6.55
2022-11-12T08:55:46.433Z,8.68
2022-11-12T08:58:28.716Z,9.73
2022-11-12T09:01:00.619Z,10.10
2022-11-12T09:03:33.597Z,7.82
2022-11-12T09:06:15.316Z,7.93
2022-11-12T09:08:55.974Z,8.43
2022-11-12T09:11:27.173Z,7.53
2022-11-12T09:14:04.043Z,8.30
2022-11-12T09:16:42.422Z,6.80
2022-11-12T09:19:12.677Z,7.85
2022-11-12T09:21:50.065Z,6.18
2022-11-12T09:24:41.303Z,6.90
2022-11-12T09:27:15.117Z,6.82
2022-11-12T09:29:46.078Z,5.83
2022-11-12T09:32:17.303Z,6.53
2022-11-12T09:34:54.750Z,8.27
2022-11-12T09:37:37.535Z,7.55
2022-11-12T09:40:27.547Z,7.07
2022-11-12T09:43:21.599Z,8.45
2022-11-12T09:46:26.739Z,6.28
2022-11-12T09:49:19.877Z,7.30
2022-11-12T09:52:20.947Z,7.28
2022-11-12T09:54:58.945Z,7.15
2022-11-12T10:00:27.203Z,7.97
2022-11-12T10:03:24.658Z,5.78
2022-11-12T10:06:55.905Z,5.45
2022-11-12T10:10:02.532Z,5.95
2022-11-12T10:13:03.318Z,5.75
2022-11-12T10:16:28.493Z,5.57
2022-11-12T10:19:18.585Z,6.40
2022-11-12T10:22:08.294Z,5.00
2022-11-12T10:24:50.211Z,4.63
2022-11-12T10:27:27.062Z,5.35
2022-11-12T10:30:06.745Z,5.57
2022-11-12T10:32:54.503Z,4.80
2022-11-12T10:35:28.797Z,4.25
2022-11-12T10:38:13.198Z,6.95
2022-11-12T10:40:44.799Z,5.75
2022-11-12T10:43:19.219Z,4.70
2022-11-12T10:46:27.796Z,5.13
2022-11-12T10:49:12.007Z,4.72
2022-11-12T10:51:42.527Z,3.83
2022-11-12T10:54:34.764Z,4.90
2022-11-12T10:57:24.994Z,5.18
2022-11-12T11:00:17.687Z,5.45
2022-11-12T11:03:00.814Z,4.53
2022-11-12T11:05:37.786Z,4.72
2022-11-12T11:08:11.861Z,5.97
2022-11-12T11:10:40.181Z,5.50
2022-11-12T11:13:23.046Z,4.15
2022-11-12T11:16:23.878Z,6.68
2022-11-12T11:19:08.522Z,4.75
2022-11-12T11:21:53.775Z,4.30
2022-11-12T11:24:48.122Z,4.93
2022-11-12T11:27:22.397Z,6.07
2022-11-12T11:29:55.870Z,5.43
2022-11-12T11:33:19.217Z,4.28
2022-11-12T11:36:31.862Z,5.68
2022-11-12T11:39:28.501Z,5.97
2022-11-12T11:42:28.499Z,4.68
2022-11-12T11:45:08.886Z,6.00
2022-11-12T11:48:01.172Z,6.95
2022-11-12T11:50:38.625Z,5.03
2022-11-12T11:53:32.636Z,4.95
2022-11-12T11:56:00.826Z,5.05
2022-11-12T11:58:40.661Z,4.70
2022-11-12T12:01:39.957Z,6.22
2022-11-12T12:04:29.417Z,5.20
2022-11-12T12:07:28.017Z,6.30
2022-11-12T12:10:13.120Z,5.95
2022-11-12T12:15:48.342Z,5.85
2022-11-12T12:18:59.220Z,5.47
2022-11-12T12:21:34.720Z,5.82
2022-11-12T12:24:07.546Z,5.28
2022-11-12T12:27:06.851Z,7.30
2022-11-12T12:29:54.043Z,5.05
2022-11-12T12:33:12.698Z,8.77
2022-11-12T12:36:19.202Z,6.05
2022-11-12T12:38:57.036Z,5.03
2022-11-12T12:41:47.046Z,5.45
2022-11-12T12:44:19.859Z,5.93
2022-11-12T12:47:04.277Z,5.35
2022-11-12T12:49:39.356Z,7.28
2022-11-12T12:52:16.389Z,8.05
2022-11-12T12:55:03.756Z,6.03
2022-11-12T12:57:52.158Z,7.30
2022-11-12T13:00:46.464Z,5.72
2022-11-12T13:03:57.566Z,5.97
2022-11-12T13:06:28.397Z,5.30
2022-11-12T13:09:20.000Z,5.07
2022-11-12T13:12:05.899Z,5.68
2022-11-12T13:14:45.333Z,5.07
2022-11-12T13:17:23.217Z,5.65
2022-11-12T13:20:00.506Z,6.72
2022-11-12T13:22:35.379Z,5.13
2022-11-12T13:25:38.696Z,5.05
2022-11-12T13:28:12.982Z,4.75
2022-11-12T13:30:45.818Z,5.47
2022-11-12T13:33:29.936Z,5.18
2022-11-12T13:36:26.378Z,4.28
2022-11-12T13:39:06.231Z,5.22
2022-11-12T13:42:05.910Z,4.63
2022-11-12T13:44:37.621Z,4.55
2022-11-12T13:47:23.232Z,3.92
2022-11-12T13:50:00.056Z,5.13
2022-11-12T13:52:29.954Z,4.57
2022-11-12T13:55:14.419Z,5.80
2022-11-12T13:57:54.421Z,4.32
2022-11-12T14:00:26.417Z,4.50
2022-11-12T14:03:03.063Z,4.18
2022-11-12T14:05:45.886Z,4.55
2022-11-12T14:08:49.104Z,5.03
2022-11-12T14:11:51.163Z,4.60
2022-11-12T14:17:53.539Z,4.07
2022-11-12T14:20:43.996Z,4.82
2022-11-12T14:23:24.867Z,4.75
2022-11-12T14:26:05.789Z,4.63
2022-11-12T14:28:44.782Z,4.65
2022-11-12T14:31:21.687Z,4.78
2022-11-12T14:33:57.942Z,4.55
2022-11-12T14:36:28.660Z,3.20
2022-11-12T14:39:03.997Z,4.50
2022-11-12T14:41:48.715Z,4.47
2022-11-12T14:44:27.036Z,3.50
2022-11-12T14:47:01.800Z,3.55
2022-11-12T14:52:34.098Z,3.75
2022-11-12T14:55:15.341Z,6.20
2022-11-12T14:58:01.859Z,5.10
2022-11-12T15:00:35.754Z,6.43
2022-11-12T15:03:16.373Z,7.05
2022-11-12T15:06:08.983Z,5.43
2022-11-12T15:08:44.977Z,5.28
2022-11-12T15:11:22.353Z,6.38
2022-11-12T15:13:56.022Z,5.53
2022-11-12T15:16:33.115Z,5.55
2022-11-12T15:19:21.783Z,5.65
2022-11-12T15:22:05.237Z,6.25
2022-11-12T15:24:42.937Z,7.28
2022-11-12T15:27:38.747Z,4.55
2022-11-12T15:30:17.918Z,6.80
2022-11-12T15:32:50.373Z,5.03
2022-11-12T15:35:40.220Z,5.28
2022-11-12T15:38:21.159Z,6.22
2022-11-12T15:40:59.945Z,4.60
2022-11-12T15:43:34.741Z,5.60
2022-11-12T15:48:42.943Z,6.00
2022-11-12T15:51:25.882Z,5.18
2022-11-12T15:53:57.887Z,5.10
2022-11-12T15:56:29.143Z,5.88
2022-11-12T15:58:57.491Z,5.07
2022-11-12T16:01:30.931Z,4.15
2022-11-12T16:04:02.078Z,6.00
2022-11-12T16:06:41.800Z,4.63
2022-11-12T16:09:15.445Z,4.50
2022-11-12T16:11:51.063Z,4.40
2022-11-12T16:14:28.928Z,4.65
2022-11-12T16:17:00.822Z,5.38
2022-11-12T16:19:36.418Z,5.65
2022-11-12T16:22:14.177Z,5.30
2022-11-12T16:24:43.866Z,4.97
2022-11-12T16:27:16.506Z,5.20
2022-11-12T16:29:51.517Z,5.50
2022-11-12T16:32:32.438Z,4.50
2022-11-12T16:35:09.136Z,4.45
2022-11-12T16:37:45.617Z,5.78
2022-11-12T16:40:46.617Z,5.40
2022-11-12T16:43:25.118Z,4.57
2022-11-12T16:45:58.036Z,5.35
2022-11-12T16:48:33.149Z,5.88
2022-11-12T16:51:04.197Z,4.82
2022-11-12T16:53:32.506Z,4.45
2022-11-12T16:56:03.035Z,5.95
2022-11-12T16:58:36.791Z,4.25
2022-11-12T17:01:08.091Z,3.47
2022-11-12T17:03:41.196Z,1.90
2022-11-12T17:06:15.225Z,3.03
2022-11-12T17:08:45.751Z,1.50
2022-11-12T17:11:22.428Z,2.35
2022-11-12T17:13:56.778Z,1.83
2022-11-12T17:16:25.205Z,2.63
2022-11-12T17:19:02.158Z,2.38
2022-11-12T17:21:31.176Z,2.60
2022-11-12T17:24:06.818Z,1.77
2022-11-12T17:26:35.172Z,3.35
2022-11-12T17:29:08.446Z,2.78
2022-11-12T17:31:39.992Z,3.50
2022-11-12T17:34:08.387Z,2.50
2022-11-12T17:36:42.157Z,2.47
2022-11-12T17:39:12.786Z,3.25
2022-11-12T17:41:43.881Z,2.72
2022-11-12T17:44:19.562Z,1.58
2022-11-12T17:46:51.787Z,3.60
2022-11-12T17:49:20.367Z,2.67
2022-11-12T17:51:51.783Z,3.35
2022-11-12T17:54:42.742Z,2.22
2022-11-12T17:57:11.542Z,2.63
2022-11-12T17:59:52.183Z,2.35
2022-11-12T18:02:25.373Z,1.38
2022-11-12T18:04:57.307Z,0.88
2022-11-12T18:07:28.581Z,1.55
2022-11-12T18:09:56.978Z,2.83
2022-11-12T18:12:27.996Z,2.15
2022-11-12T18:14:56.207Z,3.55
2022-11-12T18:17:33.627Z,1.48
2022-11-12T18:20:02.217Z,1.60
2022-11-12T18:22:33.782Z,1.67
2022-11-12T18:25:05.021Z,0.93
2022-11-12T18:27:33.457Z,1.85
2022-11-12T18:30:08.093Z,0.95
2022-11-12T18:35:11.276Z,1.75
2022-11-12T18:37:39.553Z,0.63
2022-11-12T18:40:08.980Z,0.63
2022-11-12T18:42:40.138Z,1.75
2022-11-12T18:45:09.916Z,0.95
2022-11-12T18:47:40.694Z,1.52
2022-11-12T18:50:10.855Z,1.83
2022-11-12T18:52:44.501Z,0.88
2022-11-12T18:55:12.983Z,1.63
2022-11-12T18:57:43.562Z,1.15
2022-11-12T19:00:13.097Z,2.05
2022-11-12T19:02:44.144Z,1.58
2022-11-12T19:05:12.502Z,2.47
2022-11-12T19:07:40.839Z,1.65
2022-11-12T19:10:14.950Z,1.70
2022-11-12T19:12:43.781Z,1.30
2022-11-12T19:15:15.302Z,4.35
2022-11-12T19:17:46.502Z,1.90
2022-11-12T19:20:14.850Z,1.95
2022-11-12T19:22:43.172Z,2.15
2022-11-12T19:25:11.462Z,3.60
2022-11-12T19:27:44.716Z,1.55
2022-11-12T19:30:13.551Z,0.85
2022-11-12T19:32:42.152Z,1.20
2022-11-12T19:35:10.766Z,1.98
2022-11-12T19:37:39.182Z,2.80
2022-11-12T19:40:11.078Z,0.70
2022-11-12T19:42:39.347Z,1.30
2022-11-12T19:45:10.069Z,1.98
2022-11-12T19:47:38.382Z,1.05
2022-11-12T19:50:13.210Z,1.40
2022-11-12T19:52:41.483Z,1.75
2022-11-12T19:55:12.830Z,0.90
2022-11-12T19:57:41.141Z,2.13
2022-11-12T20:00:14.198Z,1.35
2022-11-12T20:02:45.956Z,2.42
2022-11-12T20:05:14.900Z,0.50
2022-11-12T20:07:45.480Z,0.93
2022-11-12T20:10:13.780Z,1.73
2022-11-12T20:12:45.463Z,1.45
2022-11-12T20:15:13.964Z,1.75
2022-11-12T20:17:42.402Z,0.82
2022-11-12T20:20:13.888Z,0.70
2022-11-12T20:22:44.782Z,0.40
2022-11-12T20:25:19.215Z,1.10
2022-11-12T20:27:47.542Z,3.13
2022-11-12T20:30:16.296Z,1.77
2022-11-12T20:32:50.716Z,0.60
2022-11-12T20:35:22.173Z,0.88
2022-11-12T20:37:51.166Z,0.40
2022-11-12T20:40:41.877Z,1.35
2022-11-12T20:43:14.500Z,1.20
2022-11-12T20:45:53.338Z,0.68
2022-11-12T20:48:24.475Z,1.85
2022-11-12T20:51:21.712Z,0.63
2022-11-12T20:53:42.697Z,1.15
2022-11-12T20:56:17.142Z,1.05
2022-11-12T20:58:46.078Z,2.28
2022-11-12T21:01:19.107Z,2.33
2022-11-12T21:03:48.035Z,1.75
2022-11-12T21:06:22.629Z,1.80
2022-11-12T21:11:23.702Z,2.65
2022-11-12T21:13:54.860Z,1.58
2022-11-12T21:16:26.264Z,0.82
2022-11-12T21:19:02.038Z,2.05
2022-11-12T21:21:31.797Z,1.30
2022-11-12T21:24:05.937Z,0.30
2022-11-12T21:26:36.198Z,1.20
2022-11-12T21:29:05.722Z,0.75
2022-11-12T21:31:36.498Z,1.05
2022-11-12T21:34:05.472Z,1.70
2022-11-12T21:36:36.507Z,1.25
2022-11-12T21:39:05.904Z,3.92
2022-11-12T21:41:37.231Z,1.02
2022-11-12T21:44:10.379Z,1.58
2022-11-12T21:46:39.061Z,1.17
2022-11-12T21:49:07.717Z,1.40
2022-11-12T21:51:41.834Z,2.50
2022-11-12T21:54:10.467Z,0.77
2022-11-12T21:56:41.142Z,1.70
2022-11-12T21:59:09.602Z,2.13
2022-11-12T22:01:38.076Z,1.50
2022-11-12T22:04:10.077Z,2.28
2022-11-12T22:06:42.012Z,0.47
2022-11-12T22:09:12.981Z,1.65
2022-11-12T22:11:41.431Z,0.93
2022-11-12T22:14:09.916Z,0.73
2022-11-12T22:16:38.261Z,1.38
2022-11-12T22:19:06.570Z,1.95
2022-11-12T22:21:39.716Z,0.73
2022-11-12T22:24:12.581Z,2.45
2022-11-12T22:26:43.817Z,0.88
2022-11-12T22:29:12.331Z,1.70
2022-11-12T22:31:43.816Z,1.90
2022-11-12T22:34:12.242Z,0.80
2022-11-12T22:36:40.721Z,0.50
2022-11-12T22:39:11.701Z,0.60
2022-11-12T22:41:40.846Z,1.48
2022-11-12T22:44:09.271Z,0.93
2022-11-12T22:46:40.456Z,1.83
2022-11-12T22:49:08.767Z,0.95
2022-11-12T22:51:37.036Z,1.08
2022-11-12T22:54:08.876Z,1.98
2022-11-12T22:56:37.827Z,1.40
2022-11-12T22:59:06.124Z,2.25
2022-11-12T23:01:37.425Z,1.33
2022-11-12T23:04:08.341Z,1.05
2022-11-12T23:06:36.836Z,1.20
2022-11-12T23:09:05.483Z,0.90
2022-11-12T23:11:34.006Z,1.30
2022-11-12T23:14:02.377Z,0.82
2022-11-12T23:16:32.341Z,1.08
2022-11-12T23:19:01.474Z,0.85
2022-11-12T23:21:33.223Z,0.73
2022-11-12T23:24:01.621Z,0.95
2022-11-12T23:26:34.642Z,1.20
2022-11-12T23:29:04.021Z,2.25
2022-11-12T23:31:35.544Z,0.50
2022-11-12T23:34:06.443Z,0.52
2022-11-12T23:36:34.731Z,3.00
2022-11-12T23:39:06.101Z,1.98
2022-11-12T23:41:34.361Z,1.92
2022-11-12T23:44:02.743Z,2.35
2022-11-12T23:46:30.980Z,1.77
2022-11-12T23:48:59.496Z,0.90
2022-11-12T23:51:30.111Z,1.20
2022-11-12T23:54:00.641Z,1.67
2022-11-12T23:56:28.982Z,2.65
2022-11-12T23:58:57.414Z,1.58
